createdAt,value
2023-02-22T00:01:15.500Z,10.50
2023-02-22T00:03:43.009Z,10.50
2023-02-22T00:06:34.483Z,10.51
2023-02-22T00:09:04.872Z,10.53
2023-02-22T00:11:31.813Z,10.52
2023-02-22T00:14:02.495Z,10.53
2023-02-22T00:16:30.176Z,10.48
2023-02-22T00:18:57.050Z,10.54
2023-02-22T00:21:26.472Z,10.55
2023-02-22T00:23:53.229Z,10.55
2023-02-22T00:26:22.361Z,10.59
2023-02-22T00:28:52.812Z,10.59
2023-02-22T00:31:21.619Z,10.58
2023-02-22T00:33:49.693Z,10.58
2023-02-22T00:36:17.413Z,10.59
2023-02-22T00:38:44.210Z,10.60
2023-02-22T00:41:12.516Z,10.58
2023-02-22T00:43:43.046Z,10.58
2023-02-22T00:46:10.014Z,10.52
2023-02-22T00:49:02.410Z,10.52
2023-02-22T00:51:29.852Z,10.52
2023-02-22T00:54:00.599Z,10.57
2023-02-22T00:56:27.493Z,10.62
2023-02-22T00:58:55.190Z,10.62
2023-02-22T01:01:23.610Z,10.61
2023-02-22T01:03:50.410Z,10.63
2023-02-22T01:06:22.049Z,10.61
2023-02-22T01:08:49.253Z,10.61
2023-02-22T01:11:18.703Z,10.60
2023-02-22T01:13:45.995Z,10.60
2023-02-22T01:16:13.528Z,10.55
2023-02-22T01:18:40.731Z,10.51
2023-02-22T01:21:07.610Z,10.56
2023-02-22T01:23:39.503Z,10.50
2023-02-22T01:26:06.657Z,10.50
2023-02-22T01:28:38.455Z,10.53
2023-02-22T01:31:05.712Z,10.53
2023-02-22T01:33:32.944Z,10.53
2023-02-22T01:36:02.465Z,10.54
2023-02-22T01:38:29.270Z,10.54
2023-02-22T01:40:56.432Z,10.54
2023-02-22T01:43:30.327Z,10.54
2023-02-22T01:46:23.622Z,10.51
2023-02-22T01:49:03.661Z,10.54
2023-02-22T01:51:40.255Z,10.51
2023-02-22T01:54:13.848Z,10.49
2023-02-22T01:56:50.500Z,10.48
2023-02-22T01:59:21.852Z,10.50
2023-02-22T02:01:49.798Z,10.51
2023-02-22T02:04:21.114Z,10.48
2023-02-22T02:06:48.696Z,10.47
2023-02-22T02:09:37.686Z,10.42
2023-02-22T02:12:08.089Z,10.27
2023-02-22T02:14:34.976Z,10.32
2023-02-22T02:17:01.889Z,10.22
2023-02-22T02:19:42.869Z,10.13
2023-02-22T02:22:37.753Z,10.24
2023-02-22T02:25:19.512Z,10.29
2023-02-22T02:28:32.085Z,10.20
2023-02-22T02:31:39.845Z,10.28
2023-02-22T02:34:30.227Z,10.22
2023-02-22T02:37:33.489Z,10.21
2023-02-22T02:40:29.957Z,10.25
2023-02-22T02:43:31.478Z,10.17
2023-02-22T02:46:09.860Z,10.22
2023-02-22T02:48:42.430Z,10.20
2023-02-22T02:51:12.017Z,10.22
2023-02-22T02:54:08.513Z,10.21
2023-02-22T02:56:36.048Z,10.20
2023-02-22T02:59:02.959Z,10.19
2023-02-22T03:01:39.487Z,10.21
2023-02-22T03:04:59.022Z,10.15
2023-02-22T03:11:27.487Z,10.12
2023-02-22T03:14:05.403Z,10.06
2023-02-22T03:16:51.658Z,10.10
2023-02-22T03:19:35.952Z,10.06
2023-02-22T03:22:30.470Z,10.02
2023-02-22T03:25:33.374Z,10.01
2023-02-22T03:28:07.521Z,10.04
2023-02-22T03:30:47.747Z,10.06
2023-02-22T03:33:27.788Z,10.02
2023-02-22T03:36:00.910Z,9.98
2023-02-22T03:38:36.456Z,9.97
2023-02-22T03:41:08.424Z,9.97
2023-02-22T03:46:45.405Z,9.98
2023-02-22T03:49:29.925Z,9.96
2023-02-22T03:51:58.338Z,9.91
2023-02-22T03:54:26.936Z,9.89
2023-02-22T04:00:24.477Z,9.89
2023-02-22T04:02:52.071Z,9.93
2023-02-22T04:05:21.429Z,9.93
2023-02-22T04:07:50.498Z,9.90
2023-02-22T04:10:17.562Z,9.90
2023-02-22T04:12:44.834Z,9.92
2023-02-22T04:15:15.441Z,9.94
2023-02-22T04:17:43.633Z,9.94
2023-02-22T04:20:16.466Z,9.98
2023-02-22T04:22:48.902Z,10.01
2023-02-22T04:25:16.137Z,10.01
2023-02-22T04:27:44.037Z,10.02
2023-02-22T04:30:12.298Z,10.03
2023-02-22T04:32:41.397Z,10.01
2023-02-22T04:35:10.596Z,9.97
2023-02-22T04:37:37.552Z,9.97
2023-02-22T04:40:07.597Z,9.99
2023-02-22T04:42:37.431Z,10.01
2023-02-22T04:45:07.238Z,10.02
2023-02-22T04:47:36.727Z,9.98
2023-02-22T04:50:12.459Z,9.97
2023-02-22T04:52:39.482Z,9.91
2023-02-22T04:55:06.628Z,9.89
2023-02-22T04:57:59.450Z,9.91
2023-02-22T05:00:27.072Z,9.84
2023-02-22T05:03:01.716Z,9.86
2023-02-22T05:05:30.068Z,9.84
2023-02-22T05:07:58.032Z,9.85
2023-02-22T05:10:25.209Z,9.84
2023-02-22T05:12:53.329Z,9.75
2023-02-22T05:15:22.389Z,9.67
2023-02-22T05:17:50.940Z,9.65
2023-02-22T05:20:25.549Z,9.56
2023-02-22T05:22:53.437Z,9.58
2023-02-22T05:25:24.618Z,9.64
2023-02-22T05:28:01.556Z,9.71
2023-02-22T05:30:31.680Z,9.71
2023-02-22T05:33:00.678Z,9.69
2023-02-22T05:35:29.059Z,9.72
2023-02-22T05:37:58.525Z,9.75
2023-02-22T05:40:27.093Z,9.75
2023-02-22T05:43:20.725Z,9.76
2023-02-22T05:45:47.601Z,9.78
2023-02-22T05:48:14.352Z,9.80
2023-02-22T05:50:43.609Z,9.80
2023-02-22T05:53:10.705Z,9.79
2023-02-22T05:55:39.041Z,9.77
2023-02-22T05:58:08.033Z,9.79
2023-02-22T06:00:34.821Z,9.80
2023-02-22T06:03:08.822Z,9.73
2023-02-22T06:05:40.389Z,9.70
2023-02-22T06:08:09.476Z,9.64
2023-02-22T06:10:36.706Z,9.51
2023-02-22T06:13:06.000Z,9.57
2023-02-22T06:15:33.137Z,9.50
2023-02-22T06:18:01.085Z,9.57
2023-02-22T06:20:31.317Z,9.56
2023-02-22T06:22:59.508Z,9.56
2023-02-22T06:25:30.723Z,9.57
2023-02-22T06:28:04.427Z,9.57
2023-02-22T06:30:31.384Z,9.57
2023-02-22T06:32:58.155Z,9.56
2023-02-22T06:35:26.537Z,9.56
2023-02-22T06:37:53.346Z,9.52
2023-02-22T06:40:21.191Z,9.58
2023-02-22T06:42:51.476Z,9.63
2023-02-22T06:45:18.626Z,9.69
2023-02-22T06:47:47.408Z,9.69
2023-02-22T06:50:28.900Z,9.73
2023-02-22T06:52:57.859Z,9.69
2023-02-22T06:55:27.930Z,9.70
2023-02-22T06:57:55.085Z,9.73
2023-02-22T07:00:24.878Z,9.67
2023-02-22T07:02:53.172Z,9.69
2023-02-22T07:05:22.633Z,9.68
2023-02-22T07:07:51.236Z,9.67
2023-02-22T07:10:28.063Z,9.74
2023-02-22T07:12:54.895Z,9.76
2023-02-22T07:15:28.527Z,9.82
2023-02-22T07:17:57.042Z,9.86
2023-02-22T07:20:27.963Z,9.87
2023-02-22T07:22:56.493Z,9.89
2023-02-22T07:25:24.137Z,9.90
2023-02-22T07:27:51.902Z,9.89
2023-02-22T07:30:26.489Z,9.90
2023-02-22T07:32:55.045Z,9.90
2023-02-22T07:35:29.407Z,9.92
2023-02-22T07:37:56.370Z,9.96
2023-02-22T07:40:24.661Z,9.98
2023-02-22T07:42:57.070Z,9.97
2023-02-22T07:45:26.826Z,9.99
2023-02-22T07:47:54.245Z,10.02
2023-02-22T07:50:22.617Z,10.06
2023-02-22T07:52:51.577Z,10.06
2023-02-22T07:55:21.964Z,10.10
2023-02-22T07:57:51.290Z,10.14
2023-02-22T08:00:39.789Z,10.18
2023-02-22T08:03:09.663Z,10.20
2023-02-22T08:05:38.586Z,10.23
2023-02-22T08:08:06.346Z,10.27
2023-02-22T08:10:34.846Z,10.30
2023-02-22T08:13:03.020Z,10.34
2023-02-22T08:15:32.711Z,10.37
2023-02-22T08:18:01.210Z,10.41
2023-02-22T08:20:29.363Z,10.45
2023-02-22T08:22:56.829Z,10.48
2023-02-22T08:25:26.758Z,10.51
2023-02-22T08:27:58.033Z,10.53
2023-02-22T08:30:25.654Z,10.57
2023-02-22T08:32:52.723Z,10.62
2023-02-22T08:35:21.334Z,10.61
2023-02-22T08:37:53.315Z,10.61
2023-02-22T08:40:25.180Z,10.61
2023-02-22T08:42:52.125Z,10.55
2023-02-22T08:45:18.975Z,10.60
2023-02-22T08:47:46.562Z,10.56
2023-02-22T08:50:20.836Z,10.56
2023-02-22T08:52:47.761Z,10.63
2023-02-22T08:55:14.610Z,10.69
2023-02-22T08:57:41.510Z,10.72
2023-02-22T09:00:08.860Z,10.71
2023-02-22T09:02:35.688Z,10.76
2023-02-22T09:05:02.655Z,10.86
2023-02-22T09:07:29.448Z,10.88
2023-02-22T09:09:56.288Z,10.86
2023-02-22T09:12:23.538Z,10.92
2023-02-22T09:14:50.370Z,10.97
2023-02-22T09:17:17.204Z,11.02
2023-02-22T09:19:44.108Z,11.09
2023-02-22T09:22:11.580Z,11.08
2023-02-22T09:24:38.450Z,11.13
2023-02-22T09:27:05.270Z,11.15
2023-02-22T09:29:32.037Z,11.16
2023-02-22T09:31:59.120Z,11.21
2023-02-22T09:34:26.088Z,11.25
2023-02-22T09:36:53.029Z,11.29
2023-02-22T09:39:19.814Z,11.31
2023-02-22T09:41:57.069Z,11.34
2023-02-22T09:44:37.680Z,11.36
2023-02-22T09:47:06.459Z,11.40
2023-02-22T09:49:44.733Z,11.42
2023-02-22T09:52:22.441Z,11.46
2023-02-22T09:55:01.982Z,11.49
2023-02-22T09:57:35.943Z,11.55
2023-02-22T10:00:15.325Z,11.60
2023-02-22T10:03:21.225Z,11.61
2023-02-22T10:06:00.776Z,11.66
2023-02-22T10:08:31.993Z,11.70
2023-02-22T10:11:20.716Z,11.73
2023-02-22T10:13:47.557Z,11.81
2023-02-22T10:16:29.226Z,11.87
2023-02-22T10:19:26.497Z,11.84
2023-02-22T10:21:59.940Z,11.91
2023-02-22T10:24:38.827Z,11.94
2023-02-22T10:27:18.678Z,12.02
2023-02-22T10:29:54.829Z,12.06
2023-02-22T10:32:31.666Z,12.07
2023-02-22T10:35:01.858Z,12.14
2023-02-22T10:37:34.407Z,12.19
2023-02-22T10:40:13.885Z,12.20
2023-02-22T10:42:40.675Z,12.13
2023-02-22T10:45:20.808Z,12.18
2023-02-22T10:47:48.057Z,12.20
2023-02-22T10:50:15.657Z,12.16
2023-02-22T10:52:42.547Z,12.17
2023-02-22T10:55:15.685Z,12.25
2023-02-22T10:57:47.327Z,12.18
2023-02-22T11:00:20.020Z,12.26
2023-02-22T11:02:53.298Z,12.34
2023-02-22T11:05:31.064Z,12.31
2023-02-22T11:08:16.456Z,12.29
2023-02-22T11:10:44.109Z,12.28
2023-02-22T11:13:18.290Z,12.24
2023-02-22T11:15:45.254Z,12.21
2023-02-22T11:18:34.020Z,12.22
2023-02-22T11:21:06.572Z,12.26
2023-02-22T11:23:36.690Z,12.21
2023-02-22T11:26:09.270Z,12.28
2023-02-22T11:28:37.391Z,12.41
2023-02-22T11:31:21.267Z,12.44
2023-02-22T11:34:00.301Z,12.47
2023-02-22T11:36:42.693Z,12.45
2023-02-22T11:39:24.677Z,12.39
2023-02-22T11:41:51.515Z,12.39
2023-02-22T11:44:30.681Z,12.42
2023-02-22T11:47:00.600Z,12.48
2023-02-22T11:49:37.154Z,12.50
2023-02-22T11:52:27.146Z,12.45
2023-02-22T11:55:42.299Z,12.44
2023-02-22T11:58:47.999Z,12.43
2023-02-22T12:01:27.015Z,12.47
2023-02-22T12:04:18.336Z,12.44
2023-02-22T12:07:22.017Z,12.48
2023-02-22T12:09:56.036Z,12.55
2023-02-22T12:13:00.796Z,12.60
2023-02-22T12:15:51.323Z,12.54
2023-02-22T12:18:41.230Z,12.58
2023-02-22T12:21:15.119Z,12.61
2023-02-22T12:23:52.420Z,12.66
2023-02-22T12:26:40.200Z,12.63
2023-02-22T12:29:12.393Z,12.66
2023-02-22T12:31:46.581Z,12.69
2023-02-22T12:34:29.395Z,12.71
2023-02-22T12:37:18.326Z,12.74
2023-02-22T12:40:03.337Z,12.76
2023-02-22T12:42:33.568Z,12.79
2023-02-22T12:45:10.364Z,12.75
2023-02-22T12:47:46.058Z,12.78
2023-02-22T12:50:21.823Z,12.83
2023-02-22T12:53:08.435Z,12.81
2023-02-22T12:55:47.664Z,12.82
2023-02-22T12:58:37.866Z,12.76
2023-02-22T13:01:12.269Z,12.73
2023-02-22T13:03:42.289Z,12.67
2023-02-22T13:06:30.591Z,12.72
2023-02-22T13:09:16.262Z,12.75
2023-02-22T13:11:58.196Z,12.74
2023-02-22T13:14:54.679Z,12.67
2023-02-22T13:17:30.578Z,12.65
2023-02-22T13:20:00.299Z,12.69
2023-02-22T13:22:41.873Z,12.65
2023-02-22T13:25:14.221Z,12.69
2023-02-22T13:28:01.372Z,12.73
2023-02-22T13:30:39.103Z,12.71
2023-02-22T13:33:19.607Z,12.77
2023-02-22T13:36:01.503Z,12.73
2023-02-22T13:38:34.102Z,12.73
2023-02-22T13:41:19.562Z,12.78
2023-02-22T13:43:56.252Z,12.82
2023-02-22T13:46:58.182Z,12.78
2023-02-22T13:49:36.912Z,12.79
2023-02-22T13:52:27.236Z,12.78
2023-02-22T13:55:01.233Z,12.76
2023-02-22T13:57:35.262Z,12.81
2023-02-22T14:00:40.300Z,12.81
2023-02-22T14:03:13.310Z,12.79
2023-02-22T14:05:40.435Z,12.82
2023-02-22T14:08:13.984Z,12.86
2023-02-22T14:10:43.649Z,12.82
2023-02-22T14:13:11.602Z,12.79
2023-02-22T14:16:01.656Z,12.77
2023-02-22T14:18:41.542Z,12.77
2023-02-22T14:21:15.763Z,12.74
2023-02-22T14:23:51.029Z,12.72
2023-02-22T14:26:24.789Z,12.75
2023-02-22T14:28:55.055Z,12.75
2023-02-22T14:31:36.886Z,12.66
2023-02-22T14:34:16.103Z,12.69
2023-02-22T14:36:56.209Z,12.66
2023-02-22T14:39:37.912Z,12.66
2023-02-22T14:42:19.875Z,12.64
2023-02-22T14:45:10.453Z,12.61
2023-02-22T14:47:40.250Z,12.55
2023-02-22T14:50:12.776Z,12.51
2023-02-22T14:52:42.816Z,12.50
2023-02-22T14:55:24.330Z,12.50
2023-02-22T14:58:19.712Z,12.51
2023-02-22T15:00:49.091Z,12.49
2023-02-22T15:03:30.205Z,12.50
2023-02-22T15:05:57.256Z,12.48
2023-02-22T15:08:24.106Z,12.45
2023-02-22T15:10:51.931Z,12.46
2023-02-22T15:13:24.989Z,12.44
2023-02-22T15:16:00.510Z,12.40
2023-02-22T15:18:41.007Z,12.39
2023-02-22T15:21:21.192Z,12.38
2023-02-22T15:23:51.238Z,12.35
2023-02-22T15:26:26.832Z,12.34
2023-02-22T15:28:58.995Z,12.31
2023-02-22T15:31:35.445Z,12.22
2023-02-22T15:34:23.869Z,12.22
2023-02-22T15:36:53.897Z,12.19
2023-02-22T15:39:26.735Z,12.15
2023-02-22T15:42:08.697Z,12.12
2023-02-22T15:44:40.906Z,12.10
2023-02-22T15:47:16.449Z,12.03
2023-02-22T15:49:43.419Z,12.02
2023-02-22T15:52:22.357Z,11.95
2023-02-22T15:54:51.846Z,11.92
2023-02-22T15:57:21.929Z,11.87
2023-02-22T15:59:52.327Z,11.85
2023-02-22T16:02:42.191Z,11.78
2023-02-22T16:05:15.475Z,11.73
2023-02-22T16:07:47.099Z,11.65
2023-02-22T16:10:47.658Z,11.61
2023-02-22T16:13:31.507Z,11.58
2023-02-22T16:16:22.076Z,11.48
2023-02-22T16:18:50.735Z,11.49
2023-02-22T16:21:22.812Z,11.46
2023-02-22T16:24:01.333Z,11.37
2023-02-22T16:26:35.475Z,11.31
2023-02-22T16:29:05.965Z,11.29
2023-02-22T16:31:38.128Z,11.26
2023-02-22T16:34:10.418Z,11.21
2023-02-22T16:36:46.723Z,11.16
2023-02-22T16:39:24.426Z,11.09
2023-02-22T16:41:51.920Z,11.05
2023-02-22T16:44:19.217Z,11.05
2023-02-22T16:46:46.056Z,10.95
2023-02-22T16:49:13.643Z,10.93
2023-02-22T16:51:58.654Z,10.87
2023-02-22T16:54:29.912Z,10.86
2023-02-22T16:56:58.330Z,10.82
2023-02-22T16:59:25.215Z,10.76
2023-02-22T17:01:52.082Z,10.74
2023-02-22T17:04:24.205Z,10.65
2023-02-22T17:06:52.455Z,10.62
2023-02-22T17:09:20.022Z,10.55
2023-02-22T17:11:50.771Z,10.54
2023-02-22T17:14:23.144Z,10.51
2023-02-22T17:16:51.412Z,10.46
2023-02-22T17:19:26.288Z,10.39
2023-02-22T17:21:53.635Z,10.38
2023-02-22T17:24:25.171Z,10.36
2023-02-22T17:26:52.472Z,10.33
2023-02-22T17:29:20.663Z,10.20
2023-02-22T17:31:48.058Z,10.19
2023-02-22T17:34:15.818Z,10.14
2023-02-22T17:36:42.766Z,10.12
2023-02-22T17:39:10.104Z,10.03
2023-02-22T17:41:40.693Z,9.96
2023-02-22T17:44:08.614Z,9.97
2023-02-22T17:46:38.859Z,9.96
2023-02-22T17:49:06.463Z,9.84
2023-02-22T17:51:33.954Z,9.83
2023-02-22T17:54:01.168Z,9.87
2023-02-22T17:56:28.456Z,9.83
2023-02-22T17:58:56.312Z,9.82
2023-02-22T18:01:29.794Z,9.89
2023-02-22T18:04:00.835Z,9.83
2023-02-22T18:06:30.576Z,9.83
2023-02-22T18:09:00.356Z,9.59
2023-02-22T18:11:29.403Z,9.61
2023-02-22T18:13:57.917Z,9.58
2023-02-22T18:16:26.662Z,9.58
2023-02-22T18:18:55.482Z,9.45
2023-02-22T18:21:23.809Z,9.49
2023-02-22T18:23:51.040Z,9.42
2023-02-22T18:26:20.981Z,9.41
2023-02-22T18:28:48.837Z,9.38
2023-02-22T18:31:19.791Z,9.30
2023-02-22T18:33:50.999Z,9.24
2023-02-22T18:36:20.926Z,9.21
2023-02-22T18:38:48.623Z,9.16
2023-02-22T18:41:18.482Z,9.09
2023-02-22T18:43:46.955Z,9.09
2023-02-22T18:46:16.946Z,9.03
2023-02-22T18:48:46.062Z,8.86
2023-02-22T18:51:16.251Z,8.82
2023-02-22T18:53:47.738Z,8.62
2023-02-22T18:56:19.164Z,8.56
2023-02-22T18:58:47.334Z,8.49
2023-02-22T19:01:19.823Z,8.56
2023-02-22T19:03:47.607Z,8.45
2023-02-22T19:06:17.872Z,8.37
2023-02-22T19:08:46.997Z,8.27
2023-02-22T19:11:21.339Z,8.28
2023-02-22T19:13:52.712Z,8.32
2023-02-22T19:16:22.359Z,8.33
2023-02-22T19:18:52.697Z,8.35
2023-02-22T19:21:21.361Z,8.29
2023-02-22T19:23:49.877Z,8.27
2023-02-22T19:26:26.546Z,8.25
2023-02-22T19:28:56.424Z,8.23
2023-02-22T19:31:28.986Z,8.17
2023-02-22T19:34:00.713Z,8.14
2023-02-22T19:36:28.903Z,8.10
2023-02-22T19:38:59.110Z,8.08
2023-02-22T19:41:26.347Z,8.09
2023-02-22T19:43:57.350Z,8.00
2023-02-22T19:46:25.585Z,7.98
2023-02-22T19:48:54.790Z,7.83
2023-02-22T19:51:25.100Z,7.82
2023-02-22T19:53:56.120Z,7.85
2023-02-22T19:56:24.024Z,7.88
2023-02-22T19:58:53.207Z,7.89
2023-02-22T20:01:24.934Z,7.88
2023-02-22T20:04:01.890Z,7.90
2023-02-22T20:06:33.592Z,7.85
2023-02-22T20:09:02.525Z,7.88
2023-02-22T20:11:30.485Z,7.88
2023-02-22T20:13:58.358Z,7.83
2023-02-22T20:16:26.178Z,7.82
2023-02-22T20:18:56.904Z,7.82
2023-02-22T20:21:33.415Z,7.84
2023-02-22T20:24:03.108Z,7.80
2023-02-22T20:26:33.787Z,7.75
2023-02-22T20:29:04.894Z,7.51
2023-02-22T20:31:34.167Z,7.54
2023-02-22T20:34:03.019Z,7.58
2023-02-22T20:36:33.377Z,7.60
2023-02-22T20:39:03.536Z,7.59
2023-02-22T20:41:33.875Z,7.56
2023-02-22T20:44:03.063Z,7.51
2023-02-22T20:46:33.256Z,7.48
2023-02-22T20:49:02.845Z,7.47
2023-02-22T20:51:31.361Z,7.42
2023-02-22T20:54:01.411Z,7.37
2023-02-22T20:56:33.604Z,7.36
2023-02-22T20:59:04.379Z,7.39
2023-02-22T21:01:32.588Z,7.18
2023-02-22T21:04:05.731Z,7.24
2023-02-22T21:06:34.914Z,7.21
2023-02-22T21:09:04.753Z,7.20
2023-02-22T21:11:32.482Z,7.20
2023-02-22T21:14:02.898Z,7.14
2023-02-22T21:16:36.286Z,7.20
2023-02-22T21:19:08.172Z,7.16
2023-02-22T21:21:36.598Z,6.98
2023-02-22T21:24:04.524Z,7.00
2023-02-22T21:26:35.201Z,7.02
2023-02-22T21:29:06.226Z,6.98
2023-02-22T21:31:34.568Z,6.94
2023-02-22T21:34:02.710Z,6.95
2023-02-22T21:36:31.186Z,6.91
2023-02-22T21:39:01.692Z,6.79
2023-02-22T21:41:31.591Z,6.80
2023-02-22T21:43:59.589Z,6.81
2023-02-22T21:46:29.144Z,6.77
2023-02-22T21:48:58.505Z,6.70
2023-02-22T21:51:29.274Z,6.72
2023-02-22T21:53:56.248Z,6.74
2023-02-22T21:56:25.934Z,6.74
2023-02-22T21:58:57.606Z,6.69
2023-02-22T22:01:29.669Z,6.69
2023-02-22T22:03:58.714Z,6.63
2023-02-22T22:06:28.059Z,6.56
2023-02-22T22:08:57.034Z,6.50
2023-02-22T22:11:24.050Z,6.50
2023-02-22T22:13:53.299Z,6.45
2023-02-22T22:16:20.498Z,6.40
2023-02-22T22:18:47.349Z,6.42
2023-02-22T22:21:19.819Z,6.47
2023-02-22T22:23:48.070Z,6.39
2023-02-22T22:26:18.061Z,6.38
2023-02-22T22:28:50.339Z,6.39
2023-02-22T22:31:20.271Z,6.36
2023-02-22T22:33:48.075Z,6.28
2023-02-22T22:36:17.139Z,6.25
2023-02-22T22:38:44.840Z,6.27
2023-02-22T22:41:11.758Z,6.15
2023-02-22T22:43:39.241Z,5.96
2023-02-22T22:46:07.648Z,6.09
2023-02-22T22:48:36.574Z,6.04
2023-02-22T22:51:06.826Z,5.93
2023-02-22T22:53:34.559Z,5.92
2023-02-22T22:56:07.208Z,5.86
2023-02-22T22:58:35.465Z,5.82
2023-02-22T23:01:03.008Z,5.85
2023-02-22T23:03:30.358Z,5.90
2023-02-22T23:06:01.881Z,5.89
2023-02-22T23:08:28.769Z,5.88
2023-02-22T23:10:56.806Z,5.81
2023-02-22T23:13:24.039Z,5.83
2023-02-22T23:15:51.098Z,5.70
2023-02-22T23:18:17.921Z,5.69
2023-02-22T23:20:44.823Z,5.68
2023-02-22T23:23:11.653Z,5.68
2023-02-22T23:25:38.551Z,5.63
2023-02-22T23:28:05.463Z,5.65
2023-02-22T23:30:32.339Z,5.60
2023-02-22T23:32:59.185Z,5.52
2023-02-22T23:35:26.217Z,5.47
2023-02-22T23:37:53.054Z,5.42
2023-02-22T23:40:19.890Z,5.44
2023-02-22T23:42:50.804Z,5.42
2023-02-22T23:45:18.416Z,5.33
2023-02-22T23:47:45.238Z,5.37
2023-02-22T23:50:12.107Z,5.36
2023-02-22T23:52:39.018Z,5.34
2023-02-22T23:55:06.161Z,5.32
2023-02-22T23:57:33.026Z,5.29
2023-02-22T23:59:59.887Z,5.27
